Time;durP1;ratioP1;P1;durP2;ratioP2;P2;SDS_P1;SDS_P2;PMS_P1;PMS_P2;Temp;Humidity;BMP_temperature;BMP_pressure;BME280_temperature;BME280_humidity;BME280_pressure;Samples;Min_cycle;Max_cycle;Signal;HPM_P1;HPM_P2
2023/02/06 00:01:35;;;;;;;28.83;5.32;;;2.00;99.90;;;;;;4975400;28;20046;-84
2023/02/06 00:04:01;;;;;;;27.98;3.92;;;2.10;99.90;;;;;;4976642;28;20157;-84
2023/02/06 00:06:26;;;;;;;47.45;5.40;;;2.20;99.90;;;;;;4974026;28;20038;-84
2023/02/06 00:08:52;;;;;;;31.83;4.68;;;2.10;99.90;;;;;;4975504;28;20034;-80
2023/02/06 00:11:18;;;;;;;28.00;5.25;;;2.10;99.90;;;;;;4993554;28;20247;-83
2023/02/06 00:13:44;;;;;;;23.83;4.05;;;2.20;99.90;;;;;;4977312;28;21085;-83
2023/02/06 00:16:31;;;;;;;26.05;5.35;;;2.20;99.90;;;;;;5021864;28;20092;-83
2023/02/06 00:18:58;;;;;;;31.45;4.75;;;2.30;99.90;;;;;;4975492;28;20480;-84
2023/02/06 00:21:25;;;;;;;34.30;4.95;;;2.30;99.90;;;;;;4991493;28;20088;-84
2023/02/06 00:23:53;;;;;;;29.35;4.60;;;2.30;99.90;;;;;;4977311;28;20640;-84
2023/02/06 00:26:19;;;;;;;22.98;4.57;;;2.30;99.90;;;;;;5006071;28;20133;-84
2023/02/06 00:28:45;;;;;;;26.77;3.65;;;2.30;99.90;;;;;;5001217;28;20089;-84
2023/02/06 00:31:11;;;;;;;21.73;3.25;;;2.40;99.90;;;;;;4991400;28;20054;-84
2023/02/06 00:33:37;;;;;;;29.13;4.00;;;2.30;99.90;;;;;;4975938;28;20048;-84
2023/02/06 00:36:03;;;;;;;22.40;3.85;;;2.30;99.90;;;;;;4989365;28;20041;-81
2023/02/06 00:38:29;;;;;;;22.92;4.30;;;2.20;99.90;;;;;;5024837;28;20049;-84
2023/02/06 00:40:55;;;;;;;24.73;3.53;;;2.20;99.90;;;;;;4988490;28;20042;-83
2023/02/06 00:43:20;;;;;;;26.30;4.15;;;2.20;99.90;;;;;;4989424;28;20038;-83
2023/02/06 00:45:54;;;;;;;22.05;4.18;;;2.20;99.90;;;;;;4989693;28;20041;-82
2023/02/06 00:48:20;;;;;;;26.65;3.75;;;2.30;99.90;;;;;;4989678;28;20026;-84
2023/02/06 00:50:49;;;;;;;24.05;4.88;;;2.30;99.90;;;;;;4972388;28;20088;-82
2023/02/06 00:53:15;;;;;;;28.42;4.28;;;2.30;99.90;;;;;;4970068;28;20041;-81
2023/02/06 00:55:41;;;;;;;18.67;3.35;;;2.30;99.90;;;;;;4971865;28;20152;-84
2023/02/06 00:58:06;;;;;;;31.33;4.28;;;2.40;99.90;;;;;;4973441;28;20038;-83
2023/02/06 01:00:32;;;;;;;29.25;4.35;;;2.30;99.90;;;;;;4973137;28;20052;-82
2023/02/06 01:02:57;;;;;;;25.85;4.10;;;2.40;99.90;;;;;;5003709;28;20988;-83
2023/02/06 01:05:23;;;;;;;36.83;5.00;;;2.40;99.90;;;;;;4987052;28;20047;-80
2023/02/06 01:07:49;;;;;;;26.45;4.68;;;2.40;99.90;;;;;;4974650;28;20092;-81
2023/02/06 01:10:15;;;;;;;25.38;4.88;;;2.40;99.90;;;;;;5004161;28;20062;-82
2023/02/06 01:12:40;;;;;;;28.58;3.92;;;2.40;99.90;;;;;;4971471;28;20120;-84
2023/02/06 01:15:09;;;;;;;34.85;5.35;;;2.50;99.90;;;;;;4971987;28;20029;-81
2023/02/06 01:17:35;;;;;;;40.10;6.57;;;2.50;99.90;;;;;;5000399;28;20041;-84
2023/02/06 01:20:01;;;;;;;31.15;4.70;;;2.60;99.90;;;;;;4970562;28;20038;-83
2023/02/06 01:22:26;;;;;;;32.53;6.20;;;2.70;99.90;;;;;;4973627;28;20044;-82
2023/02/06 01:24:52;;;;;;;38.35;5.50;;;2.70;99.90;;;;;;4987331;28;21523;-82
2023/02/06 01:27:17;;;;;;;29.35;4.43;;;2.80;99.90;;;;;;4987056;28;20868;-84
2023/02/06 01:29:43;;;;;;;31.00;4.90;;;2.80;99.90;;;;;;5002461;28;20504;-80
2023/02/06 01:32:09;;;;;;;35.95;4.95;;;2.80;99.90;;;;;;5002756;28;20041;-83
2023/02/06 01:34:36;;;;;;;35.50;5.38;;;2.90;99.90;;;;;;4973179;28;20064;-80
2023/02/06 01:37:01;;;;;;;28.75;5.10;;;2.90;99.90;;;;;;4988815;28;20095;-84
2023/02/06 01:39:27;;;;;;;27.42;4.07;;;2.90;99.90;;;;;;4972781;28;20045;-83
2023/02/06 01:41:52;;;;;;;33.70;4.70;;;2.90;99.90;;;;;;4990134;28;20081;-81
2023/02/06 01:44:23;;;;;;;29.80;4.30;;;3.00;99.90;;;;;;4985782;28;20038;-84
2023/02/06 01:46:51;;;;;;;38.72;5.88;;;3.00;99.90;;;;;;4986961;28;20059;-82
2023/02/06 01:49:32;;;;;;;42.42;6.90;;;3.10;99.90;;;;;;4970895;28;20042;-82
2023/02/06 01:52:20;;;;;;;28.30;5.03;;;3.10;99.90;;;;;;4989925;28;20088;-84
2023/02/06 01:54:56;;;;;;;37.42;4.88;;;3.10;99.90;;;;;;4985972;28;20052;-82
2023/02/06 01:57:23;;;;;;;35.45;4.75;;;3.20;99.90;;;;;;4988456;28;20046;-84
2023/02/06 01:59:53;;;;;;;35.85;5.32;;;3.20;99.90;;;;;;4986689;28;20038;-82
2023/02/06 02:02:21;;;;;;;32.15;5.45;;;3.30;99.90;;;;;;4975851;28;20045;-84
2023/02/06 02:04:47;;;;;;;33.95;4.80;;;3.30;99.90;;;;;;4986147;28;20901;-83
2023/02/06 02:07:18;;;;;;;34.95;6.30;;;3.30;99.90;;;;;;4987482;28;20128;-81
2023/02/06 02:09:44;;;;;;;35.17;6.32;;;3.30;99.90;;;;;;4973347;28;20532;-80
2023/02/06 02:12:10;;;;;;;31.60;5.47;;;3.40;99.90;;;;;;4989742;28;20076;-84
2023/02/06 02:14:36;;;;;;;36.55;5.82;;;3.40;99.90;;;;;;4973616;28;20038;-83
2023/02/06 02:17:33;;;;;;;30.75;5.15;;;3.50;99.90;;;;;;4988102;28;20500;-82
2023/02/06 02:20:14;;;;;;;;;;;3.50;99.90;;;;;;4968769;28;20056;-83
2023/02/06 02:23:01;;;;;;;31.00;4.45;;;3.50;99.90;;;;;;4971502;28;19921;-83
2023/02/06 02:25:49;;;;;;;32.13;5.25;;;3.50;99.90;;;;;;5002251;28;20064;-82
2023/02/06 02:28:38;;;;;;;31.90;3.90;;;3.50;99.90;;;;;;4990228;28;20041;-82
2023/02/06 02:31:12;;;;;;;29.75;6.35;;;3.50;99.90;;;;;;4991740;28;20094;-80
2023/02/06 02:34:09;;;;;;;27.98;4.47;;;3.50;99.90;;;;;;4990511;28;20034;-83
2023/02/06 02:36:55;;;;;;;;;;;3.60;99.90;;;;;;4974392;28;20100;-83
2023/02/06 02:39:41;;;;;;;28.17;5.30;;;3.50;99.90;;;;;;4975484;28;20655;-83
2023/02/06 02:42:15;;;;;;;31.77;5.18;;;3.50;99.90;;;;;;4978899;28;20046;-84
2023/02/06 02:44:53;;;;;;;33.92;4.90;;;3.50;99.90;;;;;;4991193;28;20053;-81
2023/02/06 02:47:24;;;;;;;34.03;5.40;;;3.40;99.90;;;;;;4990403;28;20042;-84
2023/02/06 02:49:51;;;;;;;22.48;4.45;;;3.40;99.90;;;;;;4977261;28;20033;-84
2023/02/06 02:52:18;;;;;;;27.48;3.47;;;3.40;99.90;;;;;;4995079;28;20045;-83
2023/02/06 02:54:43;;;;;;;26.85;3.53;;;3.40;99.90;;;;;;4992998;28;20046;-81
2023/02/06 02:57:21;;;;;;;31.85;4.95;;;3.40;99.90;;;;;;4978169;28;20048;-84
2023/02/06 02:59:49;;;;;;;31.55;3.80;;;3.40;99.90;;;;;;5005119;28;20046;-82
2023/02/06 03:02:21;;;;;;;30.55;4.88;;;3.40;99.90;;;;;;5023948;28;20060;-82
2023/02/06 03:04:54;;;;;;;27.55;4.45;;;3.40;99.90;;;;;;4990185;28;20073;-82
2023/02/06 03:07:35;;;;;;;38.55;4.95;;;3.40;99.90;;;;;;4992674;28;20038;-81
2023/02/06 03:10:42;;;;;;;25.27;4.47;;;3.40;99.90;;;;;;4975027;28;20038;-83
2023/02/06 03:13:31;;;;;;;36.42;4.85;;;3.30;99.90;;;;;;4973925;28;20042;-85
2023/02/06 03:16:08;;;;;;;26.20;4.28;;;3.30;99.90;;;;;;4971396;28;20052;-84
2023/02/06 03:18:47;;;;;;;21.92;3.53;;;3.40;99.90;;;;;;5005454;28;20169;-84
2023/02/06 03:21:16;;;;;;;32.60;5.65;;;3.40;99.90;;;;;;4991737;28;20041;-84
2023/02/06 03:23:44;;;;;;;26.30;4.00;;;3.30;99.90;;;;;;5006424;28;20046;-84
2023/02/06 03:26:14;;;;;;;27.73;4.60;;;3.30;99.90;;;;;;4975119;28;20159;-81
2023/02/06 03:28:52;;;;;;;30.42;5.40;;;3.30;99.90;;;;;;4974616;28;20095;-84
2023/02/06 03:31:27;;;;;;;29.67;4.82;;;3.40;99.90;;;;;;4972368;28;20575;-84
2023/02/06 03:34:13;;;;;;;27.83;4.32;;;3.40;99.90;;;;;;4988415;28;20072;-83
2023/02/06 03:36:39;;;;;;;26.25;5.00;;;3.40;99.90;;;;;;4976431;28;20035;-81
2023/02/06 03:39:05;;;;;;;26.52;3.90;;;3.40;99.90;;;;;;4991227;28;20046;-81
2023/02/06 03:41:34;;;;;;;32.28;4.22;;;3.40;99.90;;;;;;5003967;28;20037;-83
2023/02/06 03:44:01;;;;;;;30.90;4.40;;;3.40;99.90;;;;;;4992611;28;20523;-82
2023/02/06 03:46:30;;;;;;;28.85;4.28;;;3.40;99.90;;;;;;5003591;28;20160;-82
2023/02/06 03:49:00;;;;;;;25.63;4.40;;;3.40;99.90;;;;;;4988812;28;20047;-84
2023/02/06 03:52:13;;;;;;;27.25;3.92;;;3.40;99.90;;;;;;4989083;28;20061;-82
2023/02/06 03:54:45;;;;;;;22.95;3.65;;;3.40;99.90;;;;;;4931373;28;20134;-85
2023/02/06 03:57:18;;;;;;;22.83;2.92;;;3.40;99.90;;;;;;4999178;28;20096;-83
2023/02/06 03:59:44;;;;;;;30.10;3.67;;;3.40;99.90;;;;;;4990005;28;20034;-85
2023/02/06 04:02:10;;;;;;;23.35;4.28;;;3.40;99.90;;;;;;5005345;28;20065;-81
2023/02/06 04:04:38;;;;;;;33.25;3.83;;;3.40;99.90;;;;;;4974017;28;20053;-82
2023/02/06 04:07:17;;;;;;;26.25;3.67;;;3.40;99.90;;;;;;5003623;28;20056;-81
2023/02/06 04:09:42;;;;;;;26.20;4.57;;;3.30;99.90;;;;;;4989524;28;20116;-81
2023/02/06 04:12:08;;;;;;;21.75;4.25;;;3.30;99.90;;;;;;4973636;28;20052;-83
2023/02/06 04:14:35;;;;;;;26.10;3.65;;;3.30;99.90;;;;;;4972125;28;20041;-84
2023/02/06 04:17:05;;;;;;;20.92;2.83;;;3.30;99.90;;;;;;4973601;28;20045;-82
2023/02/06 04:19:31;;;;;;;21.38;3.03;;;3.30;99.90;;;;;;4989841;28;20057;-83
2023/02/06 04:21:56;;;;;;;16.95;2.78;;;3.30;99.90;;;;;;4972845;28;20432;-81
2023/02/06 04:24:22;;;;;;;19.60;2.25;;;3.20;99.90;;;;;;4973783;28;20117;-83
2023/02/06 04:26:48;;;;;;;15.60;2.22;;;3.10;99.90;;;;;;4972796;28;20148;-81
2023/02/06 04:29:13;;;;;;;17.92;2.58;;;3.10;99.90;;;;;;4974800;28;20044;-82
2023/02/06 04:31:40;;;;;;;18.05;2.63;;;3.10;99.90;;;;;;4989085;28;20033;-84
2023/02/06 04:34:05;;;;;;;26.52;3.55;;;3.00;99.90;;;;;;4990545;28;20061;-81
2023/02/06 04:36:31;;;;;;;31.02;3.97;;;3.00;99.90;;;;;;4972893;28;20129;-84
2023/02/06 04:38:56;;;;;;;29.48;4.90;;;3.00;99.90;;;;;;4974841;28;20053;-83
2023/02/06 04:41:22;;;;;;;29.50;4.00;;;3.00;99.90;;;;;;4974018;28;20046;-81
2023/02/06 04:43:47;;;;;;;24.88;4.10;;;3.10;99.90;;;;;;4986749;28;20053;-83
2023/02/06 04:46:13;;;;;;;30.38;4.07;;;3.10;99.90;;;;;;4990709;28;20660;-83
2023/02/06 04:48:39;;;;;;;27.50;3.42;;;3.20;99.90;;;;;;4989228;28;20120;-84
2023/02/06 04:51:05;;;;;;;30.13;3.55;;;3.10;99.90;;;;;;4987624;28;20046;-84
2023/02/06 04:53:30;;;;;;;22.35;2.78;;;3.20;99.90;;;;;;5003264;28;20076;-83
2023/02/06 04:56:08;;;;;;;34.00;5.40;;;3.10;99.90;;;;;;4987802;28;20759;-81
2023/02/06 04:58:35;;;;;;;22.42;3.50;;;3.10;99.90;;;;;;5003267;28;20618;-84
2023/02/06 05:01:01;;;;;;;26.95;4.22;;;3.20;99.90;;;;;;4971617;28;20080;-83
2023/02/06 05:03:28;;;;;;;32.30;4.30;;;3.20;99.90;;;;;;4987187;28;20575;-81
2023/02/06 05:05:55;;;;;;;32.00;3.90;;;3.30;99.90;;;;;;4972088;28;20038;-83
2023/02/06 05:08:21;;;;;;;26.13;4.93;;;3.30;99.90;;;;;;4988358;28;20040;-84
2023/02/06 05:10:47;;;;;;;19.63;2.70;;;3.30;99.90;;;;;;4972714;28;20049;-81
2023/02/06 05:13:12;;;;;;;28.42;3.55;;;3.30;99.90;;;;;;4990321;28;20029;-84
2023/02/06 05:15:38;;;;;;;18.55;2.50;;;3.20;99.90;;;;;;4973052;28;20050;-83
2023/02/06 05:18:04;;;;;;;28.30;4.05;;;3.30;99.90;;;;;;4990319;28;20539;-84
2023/02/06 05:20:31;;;;;;;36.75;4.03;;;3.30;99.90;;;;;;4971959;28;20181;-81
2023/02/06 05:23:35;;;;;;;24.17;3.83;;;3.20;99.90;;;;;;4995162;28;20052;-87
2023/02/06 05:26:05;;;;;;;28.48;3.90;;;3.20;99.90;;;;;;4988902;28;20038;-87
2023/02/06 05:28:50;;;;;;;17.52;3.20;;;3.20;99.90;;;;;;4988915;28;20045;-87
2023/02/06 05:31:19;;;;;;;26.73;4.15;;;3.20;99.90;;;;;;4991598;28;20046;-87
2023/02/06 05:33:45;;;;;;;24.17;3.42;;;3.20;99.90;;;;;;4980485;28;20480;-87
2023/02/06 05:36:11;;;;;;;30.70;5.68;;;3.20;99.90;;;;;;5013420;28;20030;-87
2023/02/06 05:38:37;;;;;;;23.48;4.18;;;3.30;99.90;;;;;;4997728;28;20045;-87
2023/02/06 05:41:02;;;;;;;30.10;4.50;;;3.30;99.90;;;;;;5005456;28;20034;-85
2023/02/06 05:43:28;;;;;;;30.35;5.50;;;4.10;99.90;;;;;;4992182;28;20045;-85
2023/02/06 05:45:53;;;;;;;24.13;2.97;;;3.30;99.90;;;;;;4987565;28;20128;-86
2023/02/06 05:48:19;;;;;;;27.25;3.33;;;3.30;99.90;;;;;;5006229;28;20053;-86
2023/02/06 05:50:48;;;;;;;19.15;2.47;;;3.50;99.90;;;;;;4982737;28;20045;-85
2023/02/06 05:53:14;;;;;;;26.63;2.92;;;3.30;99.90;;;;;;4993014;28;20049;-84
2023/02/06 05:55:40;;;;;;;20.85;2.80;;;3.30;99.90;;;;;;4993129;28;20099;-83
2023/02/06 05:58:05;;;;;;;22.20;3.28;;;3.30;99.90;;;;;;4980321;28;20050;-81
2023/02/06 06:00:31;;;;;;;20.05;2.83;;;3.30;99.90;;;;;;4998504;28;20096;-85
2023/02/06 06:02:57;;;;;;;20.73;3.30;;;3.30;99.90;;;;;;4980070;28;20045;-84
2023/02/06 06:05:22;;;;;;;26.80;3.35;;;3.30;99.90;;;;;;4996586;28;20049;-85
2023/02/06 06:07:48;;;;;;;23.05;2.90;;;3.40;99.90;;;;;;4982005;28;20038;-84
2023/02/06 06:10:13;;;;;;;24.30;3.63;;;3.30;99.90;;;;;;4995400;28;20034;-86
2023/02/06 06:12:39;;;;;;;23.52;3.08;;;3.30;99.90;;;;;;4975251;28;20052;-81
2023/02/06 06:15:05;;;;;;;17.20;3.00;;;3.40;99.90;;;;;;4989361;28;20045;-82
2023/02/06 06:17:30;;;;;;;15.57;3.50;;;3.40;99.90;;;;;;4996002;28;20052;-82
2023/02/06 06:19:56;;;;;;;22.90;3.15;;;3.40;99.90;;;;;;4996492;28;20046;-82
2023/02/06 06:22:22;;;;;;;25.58;3.50;;;3.40;99.90;;;;;;4983369;28;20050;-82
2023/02/06 06:24:47;;;;;;;20.08;3.95;;;3.40;99.90;;;;;;4978611;28;20862;-81
2023/02/06 06:27:13;;;;;;;26.67;4.57;;;3.40;99.90;;;;;;4982773;28;20070;-83
2023/02/06 06:29:38;;;;;;;29.83;5.60;;;3.30;99.90;;;;;;4994977;28;20042;-84
2023/02/06 06:32:04;;;;;;;23.35;4.15;;;3.80;99.90;;;;;;4997075;28;20496;-83
2023/02/06 06:34:30;;;;;;;31.05;4.07;;;3.30;99.90;;;;;;4995305;28;20037;-80
2023/02/06 06:36:55;;;;;;;23.85;3.15;;;3.30;99.90;;;;;;4980999;28;20156;-83
2023/02/06 06:39:21;;;;;;;31.85;4.32;;;3.30;99.90;;;;;;5011139;28;20042;-81
2023/02/06 06:41:47;;;;;;;28.42;3.40;;;3.30;99.90;;;;;;4992583;28;20131;-80
2023/02/06 06:44:12;;;;;;;22.58;3.95;;;3.30;99.90;;;;;;4983263;28;20045;-84
2023/02/06 06:46:38;;;;;;;22.70;4.38;;;3.30;99.90;;;;;;4979370;28;20491;-82
2023/02/06 06:49:03;;;;;;;19.63;3.40;;;3.30;99.90;;;;;;4994745;28;20030;-83
2023/02/06 06:51:29;;;;;;;20.13;3.20;;;3.30;99.90;;;;;;4980369;28;20038;-84
2023/02/06 06:53:55;;;;;;;31.83;4.10;;;3.30;99.90;;;;;;4982762;28;20038;-83
2023/02/06 06:56:21;;;;;;;25.48;4.30;;;3.20;99.90;;;;;;4982695;28;20029;-83
2023/02/06 06:58:47;;;;;;;19.80;2.95;;;3.20;99.90;;;;;;4981227;28;20099;-83
2023/02/06 07:01:13;;;;;;;15.23;2.58;;;3.20;99.90;;;;;;5024422;28;20041;-82
2023/02/06 07:03:42;;;;;;;17.88;3.08;;;3.20;99.90;;;;;;4979441;28;20048;-85
2023/02/06 07:06:09;;;;;;;19.25;3.15;;;3.20;99.90;;;;;;4975697;28;20125;-84
2023/02/06 07:08:40;;;;;;;18.20;4.25;;;3.20;99.90;;;;;;4989558;28;20049;-84
2023/02/06 07:11:13;;;;;;;18.17;3.60;;;3.20;99.90;;;;;;4976541;28;20552;-84
2023/02/06 07:13:40;;;;;;;18.75;3.80;;;3.20;99.90;;;;;;4979235;28;20077;-84
2023/02/06 07:16:12;;;;;;;16.13;2.58;;;3.20;99.90;;;;;;4983391;28;20037;-84
2023/02/06 07:18:41;;;;;;;16.17;3.63;;;3.20;99.90;;;;;;4995264;28;20073;-84
2023/02/06 07:21:08;;;;;;;19.95;3.05;;;3.20;99.90;;;;;;4981624;28;20041;-83
2023/02/06 07:23:37;;;;;;;21.15;2.95;;;3.30;99.90;;;;;;4999409;28;20416;-84
2023/02/06 07:26:12;;;;;;;28.55;3.92;;;3.30;99.90;;;;;;4980051;28;20042;-84
2023/02/06 07:28:38;;;;;;;25.60;4.03;;;3.30;99.90;;;;;;4979455;28;20064;-80
2023/02/06 07:31:06;;;;;;;22.38;4.35;;;3.30;99.90;;;;;;4994109;28;20048;-84
2023/02/06 07:33:32;;;;;;;21.77;3.67;;;3.40;99.90;;;;;;4977791;28;20045;-84
2023/02/06 07:35:58;;;;;;;26.98;4.80;;;3.40;99.90;;;;;;4974251;28;20045;-79
2023/02/06 07:38:24;;;;;;;33.10;3.67;;;3.40;99.90;;;;;;4979999;28;20451;-82
2023/02/06 07:40:49;;;;;;;17.83;3.28;;;3.40;99.90;;;;;;4992282;28;20112;-83
2023/02/06 07:43:15;;;;;;;24.58;4.07;;;3.40;99.90;;;;;;4974463;28;20046;-83
2023/02/06 07:45:41;;;;;;;23.95;3.80;;;3.40;99.90;;;;;;4976435;28;20038;-84
2023/02/06 07:48:07;;;;;;;21.38;3.47;;;3.50;99.90;;;;;;4991692;28;20169;-83
2023/02/06 07:50:33;;;;;;;25.77;3.50;;;3.50;99.90;;;;;;5012817;28;20123;-82
2023/02/06 07:52:59;;;;;;;24.35;3.88;;;3.50;99.90;;;;;;4982319;28;20045;-82
2023/02/06 07:55:25;;;;;;;23.98;4.13;;;3.60;99.90;;;;;;4994036;28;20048;-83
2023/02/06 07:57:51;;;;;;;18.45;3.72;;;3.60;99.90;;;;;;4998713;28;20037;-83
2023/02/06 08:00:16;;;;;;;32.35;4.80;;;3.70;99.90;;;;;;4975935;28;20051;-82
2023/02/06 08:02:42;;;;;;;24.92;3.95;;;3.70;99.90;;;;;;4990250;28;20046;-84
2023/02/06 08:05:08;;;;;;;22.42;4.40;;;3.70;99.90;;;;;;4973230;28;20103;-80
2023/02/06 08:07:34;;;;;;;31.48;6.50;;;3.70;99.90;;;;;;4975633;28;20208;-82
2023/02/06 08:10:02;;;;;;;26.45;5.07;;;3.80;99.90;;;;;;4972308;28;20038;-82
2023/02/06 08:12:28;;;;;;;26.70;4.25;;;3.80;99.90;;;;;;4975487;28;20559;-81
2023/02/06 08:14:54;;;;;;;25.13;3.72;;;3.90;99.90;;;;;;4974800;28;20034;-83
2023/02/06 08:17:20;;;;;;;24.60;4.00;;;3.90;99.90;;;;;;4972842;28;20752;-82
2023/02/06 08:19:46;;;;;;;26.00;3.47;;;3.90;99.90;;;;;;4975391;28;20452;-85
2023/02/06 08:22:11;;;;;;;27.77;4.40;;;3.90;99.90;;;;;;4980294;28;20103;-84
2023/02/06 08:24:37;;;;;;;19.85;3.75;;;4.00;99.90;;;;;;4985191;28;21821;-83
2023/02/06 08:27:02;;;;;;;21.40;3.17;;;4.00;99.90;;;;;;4999909;28;20060;-85
2023/02/06 08:29:28;;;;;;;17.67;3.20;;;4.10;99.90;;;;;;4982742;28;20697;-82
2023/02/06 08:31:54;;;;;;;30.85;4.55;;;4.10;99.90;;;;;;4993594;28;20058;-82
2023/02/06 08:34:19;;;;;;;21.67;3.17;;;4.20;99.90;;;;;;4977083;28;20125;-84
2023/02/06 08:36:45;;;;;;;37.50;5.40;;;4.20;99.90;;;;;;4975150;28;20398;-81
2023/02/06 08:39:13;;;;;;;24.48;4.38;;;4.40;99.90;;;;;;4974100;28;20046;-82
2023/02/06 08:41:40;;;;;;;24.60;3.83;;;4.40;99.90;;;;;;4972472;28;20137;-83
2023/02/06 08:44:10;;;;;;;24.00;3.70;;;4.50;99.90;;;;;;4989817;28;20042;-83
2023/02/06 08:46:36;;;;;;;27.20;4.03;;;4.60;99.90;;;;;;4994298;28;20081;-84
2023/02/06 08:49:22;;;;;;;27.40;4.53;;;4.70;99.90;;;;;;4978795;28;20037;-84
2023/02/06 08:51:49;;;;;;;22.87;3.43;;;4.80;99.90;;;;;;4976071;28;20045;-81
2023/02/06 08:54:16;;;;;;;26.60;3.60;;;4.80;99.90;;;;;;4980112;28;20370;-83
2023/02/06 08:56:42;;;;;;;34.10;4.80;;;4.90;99.90;;;;;;4977750;28;20048;-84
2023/02/06 08:59:09;;;;;;;28.23;4.05;;;4.90;99.90;;;;;;4979184;28;21642;-83
2023/02/06 09:01:36;;;;;;;24.55;4.22;;;5.00;99.90;;;;;;5011071;28;20092;-84
2023/02/06 09:04:05;;;;;;;36.95;5.03;;;5.10;99.90;;;;;;4979033;28;20042;-83
2023/02/06 09:06:33;;;;;;;21.13;4.18;;;5.10;99.90;;;;;;4995665;28;20072;-83
2023/02/06 09:08:58;;;;;;;34.65;3.75;;;5.20;99.90;;;;;;4996533;28;20042;-83
2023/02/06 09:11:25;;;;;;;30.20;4.47;;;5.20;99.90;;;;;;4984923;28;20052;-83
2023/02/06 09:13:55;;;;;;;27.55;4.75;;;5.20;99.90;;;;;;4977547;28;20038;-84
2023/02/06 09:16:20;;;;;;;33.80;4.15;;;5.30;99.90;;;;;;5008202;28;20038;-85
2023/02/06 09:18:47;;;;;;;32.10;4.60;;;5.30;99.90;;;;;;4978881;28;20071;-84
2023/02/06 09:21:18;;;;;;;24.73;4.40;;;5.30;99.90;;;;;;4991305;28;20040;-85
2023/02/06 09:23:46;;;;;;;33.53;5.10;;;5.40;99.90;;;;;;4979307;28;20048;-84
2023/02/06 09:26:17;;;;;;;27.98;4.05;;;5.40;99.90;;;;;;4975777;28;20133;-84
2023/02/06 09:28:43;;;;;;;29.65;4.72;;;5.40;99.90;;;;;;4970400;28;20488;-83
2023/02/06 09:31:10;;;;;;;29.67;4.30;;;5.50;99.90;;;;;;4982283;28;20080;-82
2023/02/06 09:33:37;;;;;;;25.52;4.45;;;5.50;99.90;;;;;;4992867;28;20077;-84
2023/02/06 09:36:14;;;;;;;28.15;4.55;;;5.50;99.90;;;;;;4993135;28;20049;-84
2023/02/06 09:38:43;;;;;;;33.65;4.95;;;5.60;99.90;;;;;;4993071;28;20136;-84
2023/02/06 09:41:35;;;;;;;29.75;5.25;;;5.70;99.90;;;;;;5004760;28;20168;-81
2023/02/06 09:44:43;;;;;;;43.13;6.10;;;5.70;99.90;;;;;;4973238;28;20164;-81
2023/02/06 09:47:29;;;;;;;;;;;5.80;99.90;;;;;;4941247;28;20568;-84
2023/02/06 09:49:59;;;;;;;30.10;4.60;;;5.90;99.90;;;;;;4976933;28;19933;-83
2023/02/06 09:52:42;;;;;;;34.90;4.60;;;5.90;99.90;;;;;;5010177;28;20141;-83
2023/02/06 09:55:33;;;;;;;36.83;6.00;;;6.00;99.90;;;;;;4975550;28;20037;-83
2023/02/06 09:57:59;;;;;;;29.02;4.88;;;6.10;99.90;;;;;;4996610;28;20042;-80
2023/02/06 10:00:40;;;;;;;28.35;4.60;;;6.20;99.90;;;;;;4978809;28;20515;-83
2023/02/06 10:03:21;;;;;;;26.17;4.38;;;6.30;99.90;;;;;;4976107;28;20555;-84
2023/02/06 10:05:52;;;;;;;31.02;4.50;;;6.40;99.90;;;;;;4977491;28;20046;-83
2023/02/06 10:08:40;;;;;;;32.25;4.45;;;6.50;99.90;;;;;;4999981;28;20046;-85
2023/02/06 10:11:36;;;;;;;28.88;4.47;;;6.50;99.90;;;;;;4983840;28;20046;-85
2023/02/06 10:14:25;;;;;;;39.77;5.37;;;6.50;99.90;;;;;;4976107;28;20060;-85
2023/02/06 10:16:54;;;;;;;35.28;5.50;;;6.60;99.90;;;;;;4973348;28;20038;-83
2023/02/06 10:19:33;;;;;;;34.10;5.57;;;6.70;99.90;;;;;;4986425;28;20038;-85
2023/02/06 10:22:08;;;;;;;38.10;5.03;;;6.80;99.90;;;;;;4989261;28;20057;-84
2023/02/06 10:24:48;;;;;;;29.17;5.00;;;6.80;99.90;;;;;;5006921;28;20385;-84
2023/02/06 10:27:14;;;;;;;34.58;5.18;;;6.70;99.90;;;;;;4995534;28;20124;-84
2023/02/06 10:29:42;;;;;;;35.90;5.32;;;6.90;99.90;;;;;;4995913;28;20041;-83
2023/02/06 10:32:38;;;;;;;38.55;5.63;;;6.90;99.90;;;;;;4998388;28;20116;-83
2023/02/06 10:35:27;;;;;;;34.88;5.18;;;6.90;99.90;;;;;;5014304;28;20535;-82
2023/02/06 10:38:07;;;;;;;34.67;6.65;;;7.00;99.90;;;;;;4982048;28;20038;-82
2023/02/06 10:40:50;;;;;;;29.98;5.22;;;7.10;99.90;;;;;;4980230;28;20432;-83
2023/02/06 10:43:29;;;;;;;36.40;6.53;;;7.30;99.90;;;;;;4982801;28;20038;-82
2023/02/06 10:46:21;;;;;;;30.55;5.40;;;7.50;99.90;;;;;;5018799;28;20061;-84
2023/02/06 10:49:22;;;;;;;28.25;5.20;;;7.70;99.90;;;;;;4999134;28;20564;-81
2023/02/06 10:51:53;;;;;;;30.85;6.28;;;7.70;99.90;;;;;;4971794;28;20049;-82
2023/02/06 10:54:33;;;;;;;32.13;5.80;;;7.70;99.90;;;;;;5022939;28;20108;-83
2023/02/06 10:56:59;;;;;;;36.85;6.55;;;7.80;99.90;;;;;;5005378;28;20064;-80
2023/02/06 10:59:36;;;;;;;24.75;5.88;;;7.80;99.90;;;;;;5008509;28;20041;-83
2023/02/06 11:02:08;;;;;;;29.70;5.20;;;7.90;99.90;;;;;;5009563;28;20046;-81
2023/02/06 11:04:38;;;;;;;30.17;5.38;;;8.10;99.90;;;;;;4991086;28;20068;-82
2023/02/06 11:07:11;;;;;;;25.73;4.57;;;8.30;99.90;;;;;;4995864;28;20175;-81
2023/02/06 11:09:36;;;;;;;31.73;5.32;;;8.40;99.90;;;;;;5022111;28;20519;-83
2023/02/06 11:12:04;;;;;;;21.92;4.38;;;8.30;99.90;;;;;;4984698;28;20046;-81
2023/02/06 11:14:34;;;;;;;30.45;4.47;;;8.40;99.90;;;;;;4987788;28;20097;-81
2023/02/06 11:17:00;;;;;;;26.05;5.30;;;8.30;99.90;;;;;;4990932;28;20033;-82
2023/02/06 11:19:36;;;;;;;36.05;5.85;;;8.30;99.90;;;;;;5006589;28;20042;-85
2023/02/06 11:22:15;;;;;;;22.63;5.40;;;8.40;99.90;;;;;;4988686;28;20422;-84
2023/02/06 11:25:02;;;;;;;27.60;3.80;;;8.50;99.90;;;;;;4988117;28;20104;-83
2023/02/06 11:27:30;;;;;;;26.77;4.32;;;8.60;99.90;;;;;;5001822;28;20125;-84
2023/02/06 11:30:06;;;;;;;23.10;4.05;;;8.70;99.90;;;;;;5000161;28;20030;-84
2023/02/06 11:32:35;;;;;;;17.35;3.88;;;9.00;99.90;;;;;;4990907;28;20038;-84
2023/02/06 11:35:06;;;;;;;19.25;3.67;;;9.20;99.90;;;;;;4978854;28;20161;-82
2023/02/06 11:37:41;;;;;;;23.30;4.50;;;9.20;99.90;;;;;;4983197;28;20045;-83
2023/02/06 11:40:16;;;;;;;31.80;5.07;;;9.30;99.90;;;;;;4997521;28;20137;-82
2023/02/06 11:42:42;;;;;;;18.02;3.80;;;9.30;99.90;;;;;;4994438;28;20092;-80
2023/02/06 11:45:30;;;;;;;25.85;5.40;;;9.40;99.90;;;;;;4991239;28;20045;-80
2023/02/06 11:47:56;;;;;;;19.70;3.47;;;9.50;99.90;;;;;;5009796;28;20034;-79
2023/02/06 11:50:33;;;;;;;25.20;3.92;;;9.50;99.90;;;;;;4998318;28;20038;-81
2023/02/06 11:53:16;;;;;;;19.25;3.78;;;9.50;99.90;;;;;;5004479;28;20042;-81
2023/02/06 11:55:43;;;;;;;13.65;2.55;;;9.60;99.90;;;;;;5027179;28;20124;-83
2023/02/06 11:58:11;;;;;;;17.95;3.50;;;9.50;99.90;;;;;;4995262;28;20153;-82
2023/02/06 12:00:40;;;;;;;17.27;3.42;;;9.50;99.90;;;;;;4990460;28;20463;-80
2023/02/06 12:03:29;;;;;;;18.23;3.88;;;9.50;99.90;;;;;;4985339;28;20088;-83
2023/02/06 12:05:59;;;;;;;20.15;3.97;;;9.50;99.90;;;;;;4989040;28;20060;-82
2023/02/06 12:08:52;;;;;;;18.55;3.83;;;9.60;99.90;;;;;;5001840;28;20135;-84
2023/02/06 12:11:36;;;;;;;14.57;2.42;;;10.40;99.90;;;;;;4995670;28;20409;-82
2023/02/06 12:14:34;;;;;;;16.08;2.42;;;10.00;99.90;;;;;;4981781;28;20050;-81
2023/02/06 12:17:03;;;;;;;14.10;3.05;;;10.00;99.90;;;;;;4995829;28;20144;-81
2023/02/06 12:19:40;;;;;;;15.23;2.90;;;10.00;99.90;;;;;;5028632;28;20030;-79
2023/02/06 12:22:25;;;;;;;12.45;3.10;;;10.30;99.90;;;;;;4997729;28;20484;-81
2023/02/06 12:24:54;;;;;;;15.75;2.83;;;10.40;99.90;;;;;;4995309;28;20057;-81
2023/02/06 12:27:24;;;;;;;13.98;2.80;;;10.50;99.90;;;;;;4980297;28;20044;-83
2023/02/06 12:30:16;;;;;;;11.25;2.28;;;10.50;99.90;;;;;;4995197;28;20049;-81
2023/02/06 12:32:47;;;;;;;16.67;2.95;;;10.40;99.90;;;;;;4998008;28;20400;-81
2023/02/06 12:35:37;;;;;;;15.48;2.40;;;10.40;99.90;;;;;;4975483;28;20069;-84
2023/02/06 12:38:10;;;;;;;17.25;3.75;;;10.30;99.90;;;;;;4993019;28;20042;-79
2023/02/06 12:40:54;;;;;;;13.52;2.50;;;10.30;99.90;;;;;;5007774;28;20042;-81
2023/02/06 12:43:20;;;;;;;12.10;2.55;;;10.20;99.90;;;;;;4992640;28;20053;-80
2023/02/06 12:45:48;;;;;;;20.15;3.45;;;10.20;99.90;;;;;;5025327;28;20503;-81
2023/02/06 12:48:21;;;;;;;13.68;2.70;;;10.20;99.90;;;;;;5013415;28;20041;-80
2023/02/06 12:51:18;;;;;;;17.20;3.10;;;10.00;99.90;;;;;;4981494;28;20133;-81
2023/02/06 12:53:47;;;;;;;;;;;9.90;99.90;;;;;;4999899;28;20038;-80
2023/02/06 12:56:19;;;;;;;11.13;1.80;;;9.70;99.90;;;;;;4996303;28;19936;-81
2023/02/06 12:59:01;;;;;;;12.27;2.17;;;9.60;99.90;;;;;;4993518;28;20122;-82
2023/02/06 13:02:04;;;;;;;12.70;2.65;;;9.50;99.90;;;;;;4998529;28;20038;-82
2023/02/06 13:04:33;;;;;;;13.38;2.20;;;9.50;99.90;;;;;;4985404;28;20042;-80
2023/02/06 13:07:03;;;;;;;11.98;1.58;;;9.60;99.90;;;;;;4999408;28;20049;-80
2023/02/06 13:09:35;;;;;;;14.40;2.45;;;9.60;99.90;;;;;;4999596;28;20034;-79